Time;durP1;ratioP1;P1;durP2;ratioP2;P2;SDS_P1;SDS_P2;PMS_P1;PMS_P2;Temp;Humidity;BMP_temperature;BMP_pressure;BME280_temperature;BME280_humidity;BME280_pressure;Samples;Min_cycle;Max_cycle;Signal;HPM_P1;HPM_P2
2023/06/06 00:01:49;;;;;;;10.45;3.50;;;21.70;62.40;;;;;;7400340;19;19974;-75
2023/06/06 00:04:20;;;;;;;8.00;3.13;;;21.60;62.30;;;;;;7398166;19;20332;-76
2023/06/06 00:06:52;;;;;;;10.65;4.03;;;21.60;62.40;;;;;;7401366;19;20251;-75
2023/06/06 00:09:21;;;;;;;10.43;4.25;;;21.60;62.40;;;;;;7399130;19;19926;-75
2023/06/06 00:11:50;;;;;;;8.32;3.53;;;21.60;62.50;;;;;;7399463;19;19960;-75
2023/06/06 00:14:22;;;;;;;7.82;4.05;;;21.60;62.50;;;;;;7399381;19;19926;-76
2023/06/06 00:16:51;;;;;;;10.38;3.85;;;21.50;62.50;;;;;;7399587;19;19978;-75
2023/06/06 00:19:23;;;;;;;10.25;4.22;;;21.50;62.60;;;;;;7398418;19;19946;-76
2023/06/06 00:21:52;;;;;;;9.82;3.70;;;21.50;62.60;;;;;;7399156;19;19932;-75
2023/06/06 00:24:21;;;;;;;8.13;3.33;;;21.50;62.60;;;;;;7399301;19;19947;-75
2023/06/06 00:26:50;;;;;;;8.50;3.45;;;21.50;62.70;;;;;;7399064;19;20273;-75
2023/06/06 00:29:19;;;;;;;8.68;3.28;;;21.50;62.80;;;;;;7398085;19;19990;-76
2023/06/06 00:31:48;;;;;;;8.13;3.85;;;21.40;62.80;;;;;;7399444;19;20420;-75
2023/06/06 00:34:17;;;;;;;8.30;3.70;;;21.40;62.80;;;;;;7401073;19;19941;-75
2023/06/06 00:36:49;;;;;;;9.35;3.33;;;21.40;62.90;;;;;;7396865;19;19929;-75
2023/06/06 00:39:18;;;;;;;7.55;3.22;;;21.40;62.90;;;;;;7399297;19;19998;-75
2023/06/06 00:41:48;;;;;;;8.77;3.63;;;21.40;62.90;;;;;;7397917;19;19927;-75
2023/06/06 00:44:18;;;;;;;9.38;3.40;;;21.40;62.90;;;;;;7402025;19;19939;-75
2023/06/06 00:46:47;;;;;;;8.68;3.60;;;21.40;63.00;;;;;;7400968;19;19923;-75
2023/06/06 00:49:17;;;;;;;7.28;3.25;;;21.40;63.60;;;;;;7398556;19;19919;-75
2023/06/06 00:51:49;;;;;;;9.20;3.60;;;21.40;63.00;;;;;;7397057;19;19927;-76
2023/06/06 00:54:21;;;;;;;7.45;3.35;;;21.30;63.00;;;;;;7400402;19;19926;-75
2023/06/06 00:56:53;;;;;;;8.50;3.00;;;21.30;63.10;;;;;;7398178;19;19926;-75
2023/06/06 00:59:23;;;;;;;7.53;3.03;;;21.30;63.10;;;;;;7397101;19;20609;-75
2023/06/06 01:01:53;;;;;;;7.72;3.28;;;21.30;63.10;;;;;;7398482;19;19982;-75
2023/06/06 01:04:24;;;;;;;8.18;3.55;;;21.30;63.10;;;;;;7400429;19;20001;-75
2023/06/06 01:06:57;;;;;;;8.75;3.17;;;21.30;63.20;;;;;;7397235;19;20337;-75
2023/06/06 01:09:26;;;;;;;7.65;2.83;;;21.30;63.20;;;;;;7398132;19;19941;-75
2023/06/06 01:12:07;;;;;;;8.02;3.25;;;21.30;63.20;;;;;;7397355;19;19926;-75
2023/06/06 01:14:46;;;;;;;6.70;3.00;;;21.30;63.40;;;;;;7399635;19;19959;-75
2023/06/06 01:17:16;;;;;;;8.95;3.22;;;21.30;63.30;;;;;;7400749;19;19938;-75
2023/06/06 01:19:48;;;;;;;8.65;3.10;;;21.20;63.30;;;;;;7400154;19;20309;-75
2023/06/06 01:22:22;;;;;;;7.70;3.03;;;21.20;63.30;;;;;;7399393;19;19930;-75
2023/06/06 01:24:53;;;;;;;6.90;2.50;;;21.20;63.40;;;;;;7401247;19;19923;-75
2023/06/06 01:27:23;;;;;;;7.80;3.08;;;21.20;63.50;;;;;;7393064;19;19918;-75
2023/06/06 01:29:53;;;;;;;;;;;21.20;63.60;;;;;;7393937;19;19930;-76
2023/06/06 01:32:26;;;;;;;6.63;2.88;;;21.10;63.50;;;;;;7395520;19;19925;-75
2023/06/06 01:35:03;;;;;;;7.50;2.97;;;21.10;63.50;;;;;;7398436;19;19970;-75
2023/06/06 01:37:41;;;;;;;7.18;2.92;;;21.20;63.50;;;;;;7399154;19;19944;-75
2023/06/06 01:40:13;;;;;;;6.90;2.85;;;21.20;63.60;;;;;;7395629;19;19918;-75
2023/06/06 01:42:47;;;;;;;7.82;3.30;;;21.10;63.60;;;;;;7397692;19;19927;-75
2023/06/06 01:45:17;;;;;;;6.75;2.85;;;21.10;63.60;;;;;;7394935;19;19923;-74
2023/06/06 01:47:47;;;;;;;7.90;3.33;;;21.10;63.60;;;;;;7398143;19;19918;-75
2023/06/06 01:50:16;;;;;;;9.07;3.00;;;21.10;63.60;;;;;;7396424;19;19981;-75
2023/06/06 01:52:48;;;;;;;7.18;3.03;;;21.10;63.70;;;;;;7397559;19;19928;-75
2023/06/06 01:55:17;;;;;;;7.50;3.25;;;21.10;63.70;;;;;;7402731;19;20351;-75
2023/06/06 01:57:47;;;;;;;7.18;2.40;;;21.10;63.70;;;;;;7404113;19;19978;-75
2023/06/06 02:00:17;;;;;;;6.30;2.20;;;21.00;63.70;;;;;;7402158;19;19999;-75
2023/06/06 02:02:46;;;;;;;6.22;2.40;;;21.10;63.80;;;;;;7402911;19;19923;-75
2023/06/06 02:05:15;;;;;;;7.07;2.88;;;21.00;63.80;;;;;;7403396;19;20010;-75
2023/06/06 02:07:44;;;;;;;6.32;2.85;;;21.00;63.80;;;;;;7406112;19;19929;-75
2023/06/06 02:10:16;;;;;;;6.32;2.72;;;21.00;63.90;;;;;;7403063;19;19918;-74
2023/06/06 02:12:45;;;;;;;7.85;2.60;;;21.00;63.90;;;;;;7401068;19;19978;-75
2023/06/06 02:15:16;;;;;;;6.78;2.83;;;21.00;64.00;;;;;;7405620;19;19953;-75
2023/06/06 02:17:46;;;;;;;8.07;2.80;;;21.00;64.00;;;;;;7402551;19;19918;-75
2023/06/06 02:20:15;;;;;;;7.07;2.55;;;20.90;64.00;;;;;;7399454;19;19929;-75
2023/06/06 02:22:44;;;;;;;7.32;2.58;;;20.90;64.00;;;;;;7401863;19;19978;-76
2023/06/06 02:25:16;;;;;;;6.65;2.72;;;20.90;64.00;;;;;;7401643;19;19942;-76
2023/06/06 02:27:48;;;;;;;7.07;2.65;;;20.90;64.00;;;;;;7402650;19;19922;-75
2023/06/06 02:30:17;;;;;;;7.55;2.78;;;20.90;64.00;;;;;;7400630;19;19939;-75
2023/06/06 02:32:46;;;;;;;5.95;2.78;;;20.90;64.10;;;;;;7403748;19;19918;-75
2023/06/06 02:35:18;;;;;;;5.40;2.60;;;20.90;64.10;;;;;;7402788;19;19926;-75
2023/06/06 02:37:47;;;;;;;6.15;2.78;;;20.90;64.10;;;;;;7402567;19;19986;-75
2023/06/06 02:40:19;;;;;;;6.03;2.42;;;20.90;64.20;;;;;;7402115;19;20623;-75
2023/06/06 02:42:48;;;;;;;6.22;2.30;;;20.90;64.20;;;;;;7403773;19;20245;-75
2023/06/06 02:45:17;;;;;;;6.20;2.70;;;20.90;64.30;;;;;;7402569;19;19983;-75
2023/06/06 02:47:46;;;;;;;7.22;2.72;;;20.80;64.20;;;;;;7401552;19;19992;-75
2023/06/06 02:50:19;;;;;;;5.78;2.80;;;20.90;64.20;;;;;;7399389;19;19978;-75
2023/06/06 02:52:48;;;;;;;8.43;3.28;;;20.90;64.30;;;;;;7404430;19;20639;-75
2023/06/06 02:55:20;;;;;;;6.40;2.30;;;20.80;64.20;;;;;;7402288;19;19946;-74
2023/06/06 02:57:52;;;;;;;6.75;2.67;;;20.80;64.20;;;;;;7403808;19;19918;-75
2023/06/06 03:00:21;;;;;;;7.10;2.83;;;20.80;64.30;;;;;;7401607;19;19978;-75
2023/06/06 03:02:50;;;;;;;6.13;2.40;;;20.80;64.30;;;;;;7401914;19;20009;-75
2023/06/06 03:05:19;;;;;;;5.32;2.33;;;20.80;64.30;;;;;;7401127;19;19926;-75
2023/06/06 03:07:48;;;;;;;5.13;2.28;;;20.70;64.40;;;;;;7403083;19;19926;-75
2023/06/06 03:10:20;;;;;;;5.68;2.30;;;20.70;64.40;;;;;;7400831;19;19934;-75
2023/06/06 03:12:49;;;;;;;5.45;2.22;;;20.70;64.40;;;;;;7400824;19;19922;-75
2023/06/06 03:15:18;;;;;;;5.22;2.53;;;20.70;64.40;;;;;;7403335;19;19986;-75
2023/06/06 03:17:48;;;;;;;5.07;2.17;;;20.70;64.40;;;;;;7400265;19;20546;-75
2023/06/06 03:20:17;;;;;;;8.20;2.63;;;20.70;65.10;;;;;;7399523;19;19926;-75
2023/06/06 03:22:46;;;;;;;5.78;2.35;;;20.70;64.50;;;;;;7400886;19;20556;-75
2023/06/06 03:25:15;;;;;;;5.93;2.20;;;20.70;64.50;;;;;;7402704;19;19930;-75
2023/06/06 03:27:48;;;;;;;5.90;2.75;;;20.70;64.60;;;;;;7401567;19;19926;-75
2023/06/06 03:30:17;;;;;;;6.15;2.33;;;20.70;64.60;;;;;;7399091;19;19926;-75
2023/06/06 03:32:46;;;;;;;5.38;2.47;;;20.70;64.60;;;;;;7403212;19;19950;-75
2023/06/06 03:35:17;;;;;;;5.25;1.90;;;20.70;64.60;;;;;;7401938;19;19926;-75
2023/06/06 03:37:46;;;;;;;5.45;2.08;;;20.70;64.70;;;;;;7402758;19;20317;-75
2023/06/06 03:40:16;;;;;;;5.72;2.30;;;20.70;64.60;;;;;;7399795;19;19943;-75
2023/06/06 03:42:48;;;;;;;6.43;2.88;;;20.60;64.60;;;;;;7400732;19;19927;-75
2023/06/06 03:45:17;;;;;;;4.78;2.03;;;20.60;64.60;;;;;;7399413;19;20381;-75
2023/06/06 03:47:46;;;;;;;4.72;2.35;;;20.60;64.60;;;;;;7400764;19;20346;-75
2023/06/06 03:50:15;;;;;;;5.38;2.00;;;20.70;64.70;;;;;;7399210;19;19915;-75
2023/06/06 03:52:45;;;;;;;5.60;2.50;;;20.70;64.70;;;;;;7400328;19;19938;-75
2023/06/06 03:55:14;;;;;;;4.00;2.17;;;20.60;64.70;;;;;;7401203;19;19934;-75
2023/06/06 03:57:43;;;;;;;5.00;2.38;;;20.60;64.70;;;;;;7400394;19;19922;-75
2023/06/06 04:00:17;;;;;;;6.85;2.78;;;20.60;64.70;;;;;;7400137;19;19927;-75
2023/06/06 04:02:48;;;;;;;5.75;2.40;;;20.60;64.70;;;;;;7401062;19;20400;-75
2023/06/06 04:05:18;;;;;;;5.93;2.17;;;20.60;64.70;;;;;;7399757;19;20286;-75
2023/06/06 04:07:47;;;;;;;5.57;2.28;;;20.60;64.80;;;;;;7402795;19;19931;-75
2023/06/06 04:10:16;;;;;;;;;;;20.60;64.80;;;;;;7405218;19;19925;-75
2023/06/06 04:12:45;;;;;;;4.43;1.75;;;20.60;64.80;;;;;;7398455;19;19953;-75
2023/06/06 04:15:17;;;;;;;6.20;1.98;;;20.60;64.80;;;;;;7400360;19;19930;-75
2023/06/06 04:17:46;;;;;;;4.45;2.42;;;20.60;64.90;;;;;;7400781;19;19942;-75
2023/06/06 04:20:15;;;;;;;4.32;2.30;;;20.60;64.90;;;;;;7398048;19;19958;-75
2023/06/06 04:22:45;;;;;;;;;;;20.60;64.90;;;;;;7402602;19;19990;-75
2023/06/06 04:25:16;;;;;;;5.22;1.60;;;20.60;64.90;;;;;;7399223;19;19930;-75
2023/06/06 04:27:48;;;;;;;4.47;1.73;;;20.60;64.90;;;;;;7399522;19;20408;-76
2023/06/06 04:30:22;;;;;;;4.10;1.80;;;20.60;64.90;;;;;;7397135;19;19921;-75
2023/06/06 04:32:52;;;;;;;4.25;1.75;;;20.60;64.90;;;;;;7395690;19;20297;-74
2023/06/06 04:35:21;;;;;;;5.00;1.77;;;20.60;65.00;;;;;;7398076;19;19927;-74
2023/06/06 04:37:54;;;;;;;5.20;1.70;;;20.60;65.00;;;;;;7398877;19;19919;-75
2023/06/06 04:40:24;;;;;;;4.50;1.98;;;20.60;64.90;;;;;;7400490;19;19930;-73
2023/06/06 04:42:58;;;;;;;4.55;2.00;;;20.60;64.90;;;;;;7400284;19;19925;-74
2023/06/06 04:45:30;;;;;;;4.00;2.10;;;20.60;64.90;;;;;;7398861;19;19978;-75
2023/06/06 04:47:59;;;;;;;3.75;1.58;;;20.60;64.90;;;;;;7399226;19;19926;-75
2023/06/06 04:50:29;;;;;;;5.70;2.17;;;20.60;64.90;;;;;;7399450;19;19998;-74
2023/06/06 04:52:58;;;;;;;4.55;1.92;;;20.60;65.50;;;;;;7398861;19;19919;-75
2023/06/06 04:55:27;;;;;;;4.72;1.85;;;20.60;64.90;;;;;;7396862;19;19968;-74
2023/06/06 04:57:58;;;;;;;4.68;2.15;;;20.60;64.90;;;;;;7393469;19;19970;-74
2023/06/06 05:00:31;;;;;;;4.57;1.73;;;20.60;64.80;;;;;;7397885;19;19921;-75
2023/06/06 05:03:00;;;;;;;4.38;1.52;;;20.60;64.90;;;;;;7400836;19;19918;-75
2023/06/06 05:05:29;;;;;;;4.13;1.17;;;20.60;64.90;;;;;;7399756;19;19929;-75
2023/06/06 05:07:58;;;;;;;5.22;1.95;;;20.60;64.90;;;;;;7397337;19;19922;-75
2023/06/06 05:10:27;;;;;;;5.03;1.95;;;20.60;64.90;;;;;;7398569;19;20364;-75
2023/06/06 05:12:56;;;;;;;4.43;1.58;;;20.60;64.90;;;;;;7399621;19;20900;-75
2023/06/06 05:15:25;;;;;;;4.88;2.30;;;20.60;64.90;;;;;;7398737;19;19930;-75
2023/06/06 05:18:00;;;;;;;;;;;20.60;64.80;;;;;;7400952;19;20396;-75
2023/06/06 05:20:29;;;;;;;;;;;20.60;64.80;;;;;;7398239;19;20284;-75
2023/06/06 05:22:58;;;;;;;4.28;1.95;;;20.70;64.90;;;;;;7397656;19;19926;-74
2023/06/06 05:25:27;;;;;;;3.92;1.63;;;20.70;64.90;;;;;;7396090;19;20340;-75
2023/06/06 05:27:56;;;;;;;4.53;1.75;;;20.70;64.90;;;;;;7400829;19;19943;-75
2023/06/06 05:30:25;;;;;;;6.00;1.98;;;20.60;64.90;;;;;;7404017;19;20417;-75
2023/06/06 05:32:54;;;;;;;5.32;2.15;;;20.60;64.90;;;;;;7405564;19;20552;-76
2023/06/06 05:35:25;;;;;;;4.00;1.60;;;20.60;64.90;;;;;;7405451;19;19947;-75
2023/06/06 05:37:54;;;;;;;3.90;1.70;;;20.70;64.90;;;;;;7401595;19;19923;-75
2023/06/06 05:40:23;;;;;;;4.07;1.48;;;20.70;65.00;;;;;;7405344;19;19970;-75
2023/06/06 05:42:55;;;;;;;3.88;1.70;;;20.70;65.00;;;;;;7404023;19;20416;-75
2023/06/06 05:45:24;;;;;;;5.53;2.05;;;20.70;64.90;;;;;;7406646;19;19933;-74
2023/06/06 05:47:53;;;;;;;3.72;1.75;;;20.70;64.90;;;;;;7406514;19;19923;-74
2023/06/06 05:50:25;;;;;;;4.72;1.85;;;20.70;64.90;;;;;;7405233;19;20014;-75
2023/06/06 05:52:54;;;;;;;4.35;1.52;;;20.70;64.90;;;;;;7406349;19;19926;-74
2023/06/06 05:55:30;;;;;;;3.63;1.73;;;20.70;64.90;;;;;;7402156;19;19923;-75
2023/06/06 05:57:59;;;;;;;4.93;1.65;;;20.70;64.90;;;;;;7401860;19;19946;-74
2023/06/06 06:00:30;;;;;;;3.47;1.20;;;20.70;64.80;;;;;;7402966;19;19930;-75
2023/06/06 06:03:00;;;;;;;3.58;1.70;;;20.70;64.90;;;;;;7406174;19;19926;-74
2023/06/06 06:05:32;;;;;;;3.13;1.42;;;20.70;64.80;;;;;;7404082;19;19914;-75
2023/06/06 06:08:02;;;;;;;3.20;1.50;;;20.70;64.80;;;;;;7403057;19;19922;-74
2023/06/06 06:10:32;;;;;;;3.50;1.63;;;20.70;64.90;;;;;;7403131;19;19925;-74
2023/06/06 06:13:02;;;;;;;3.40;1.33;;;20.80;64.90;;;;;;7402375;19;19929;-74
2023/06/06 06:15:33;;;;;;;4.55;2.05;;;20.70;64.80;;;;;;7400451;19;19930;-74
2023/06/06 06:18:02;;;;;;;3.75;1.48;;;20.70;64.80;;;;;;7404749;19;20011;-74
2023/06/06 06:20:34;;;;;;;4.25;1.52;;;20.80;64.90;;;;;;7398533;19;19930;-75
2023/06/06 06:23:03;;;;;;;3.53;1.20;;;20.80;64.90;;;;;;7401390;19;19923;-74
2023/06/06 06:25:32;;;;;;;3.17;1.35;;;20.80;64.90;;;;;;7399373;19;20646;-75
2023/06/06 06:28:05;;;;;;;3.63;1.35;;;20.80;64.90;;;;;;7401545;19;20703;-74
2023/06/06 06:30:34;;;;;;;3.78;1.45;;;20.80;64.90;;;;;;7401532;19;19957;-75
2023/06/06 06:33:03;;;;;;;3.88;1.33;;;20.80;64.90;;;;;;7403463;19;19965;-75
2023/06/06 06:35:35;;;;;;;4.20;2.03;;;20.80;64.80;;;;;;7404981;19;19918;-75
2023/06/06 06:38:04;;;;;;;4.20;1.85;;;20.80;64.80;;;;;;7399469;19;20260;-75
2023/06/06 06:40:33;;;;;;;3.55;1.48;;;20.90;64.80;;;;;;7398036;19;19928;-76
2023/06/06 06:43:02;;;;;;;3.65;1.52;;;20.90;64.80;;;;;;7401104;19;20372;-75
2023/06/06 06:45:31;;;;;;;3.30;1.23;;;20.90;64.80;;;;;;7401738;19;19952;-74
2023/06/06 06:48:02;;;;;;;3.25;1.30;;;20.90;64.80;;;;;;7401288;19;19911;-75
2023/06/06 06:50:34;;;;;;;4.68;1.90;;;20.90;64.80;;;;;;7400056;19;19929;-75
2023/06/06 06:53:04;;;;;;;3.45;1.50;;;20.90;64.80;;;;;;7399588;19;19926;-75
2023/06/06 06:55:34;;;;;;;;;;;20.90;64.80;;;;;;7402917;19;19986;-75
2023/06/06 06:58:03;;;;;;;3.50;1.17;;;20.90;64.70;;;;;;7403180;19;19925;-75
2023/06/06 07:00:33;;;;;;;4.00;1.55;;;21.00;64.80;;;;;;7399513;19;19927;-75
2023/06/06 07:03:04;;;;;;;3.67;1.40;;;20.90;64.60;;;;;;7398044;19;20319;-74
2023/06/06 07:05:35;;;;;;;3.65;1.23;;;21.00;64.70;;;;;;7398932;19;19919;-75
2023/06/06 07:08:04;;;;;;;4.28;1.50;;;21.00;64.70;;;;;;7400442;19;19923;-75
2023/06/06 07:10:35;;;;;;;4.57;1.95;;;21.00;64.60;;;;;;7402209;19;19922;-75
2023/06/06 07:13:04;;;;;;;4.15;1.52;;;21.00;64.60;;;;;;7401866;19;19929;-75
2023/06/06 07:15:38;;;;;;;3.10;1.50;;;21.00;64.60;;;;;;7403339;19;19998;-75
2023/06/06 07:18:08;;;;;;;4.20;1.75;;;21.00;64.60;;;;;;7400626;19;19990;-75
2023/06/06 07:20:40;;;;;;;3.97;1.80;;;21.10;64.70;;;;;;7400700;19;19927;-74
2023/06/06 07:23:10;;;;;;;3.50;1.85;;;21.00;64.50;;;;;;7401045;19;19986;-74
2023/06/06 07:25:39;;;;;;;3.10;1.70;;;21.10;64.60;;;;;;7398671;19;19933;-75
2023/06/06 07:28:10;;;;;;;4.10;1.80;;;21.10;64.60;;;;;;7405360;19;20289;-75
2023/06/06 07:30:39;;;;;;;4.20;2.15;;;21.10;64.50;;;;;;7402774;19;19922;-75
2023/06/06 07:33:08;;;;;;;4.45;1.70;;;21.10;64.50;;;;;;7404326;19;20267;-75
2023/06/06 07:35:39;;;;;;;2.72;1.20;;;21.10;64.50;;;;;;7404113;19;20380;-75
2023/06/06 07:38:08;;;;;;;3.65;1.50;;;21.10;64.50;;;;;;7403630;19;19922;-75
2023/06/06 07:40:37;;;;;;;3.35;1.13;;;21.20;64.50;;;;;;7401846;19;19986;-74
2023/06/06 07:43:06;;;;;;;3.65;1.58;;;21.20;64.50;;;;;;7400383;19;19922;-75
2023/06/06 07:45:35;;;;;;;4.10;1.65;;;21.20;64.50;;;;;;7401778;19;19965;-75
2023/06/06 07:48:05;;;;;;;4.03;1.85;;;21.20;64.40;;;;;;7403320;19;20333;-75
2023/06/06 07:50:34;;;;;;;4.18;1.60;;;21.20;64.40;;;;;;7399565;19;19970;-75
2023/06/06 07:53:06;;;;;;;4.40;1.58;;;21.20;64.30;;;;;;7403801;19;19940;-75
2023/06/06 07:55:36;;;;;;;4.30;1.58;;;21.20;64.30;;;;;;7401970;19;19918;-75
2023/06/06 07:58:11;;;;;;;3.67;1.30;;;21.20;64.30;;;;;;7401281;19;19919;-75
2023/06/06 08:00:42;;;;;;;2.90;1.35;;;21.30;64.40;;;;;;7399773;19;20374;-75
2023/06/06 08:03:14;;;;;;;3.72;1.40;;;21.30;64.30;;;;;;7401258;19;19974;-74
2023/06/06 08:05:43;;;;;;;4.03;1.10;;;21.30;64.30;;;;;;7402140;19;19985;-75
2023/06/06 08:08:15;;;;;;;3.25;1.27;;;21.30;64.40;;;;;;7401882;19;19922;-75
2023/06/06 08:10:44;;;;;;;3.28;1.38;;;21.30;64.20;;;;;;7403289;19;19923;-75
2023/06/06 08:13:14;;;;;;;2.88;1.23;;;21.40;64.30;;;;;;7401840;19;19922;-75
2023/06/06 08:15:43;;;;;;;3.35;1.48;;;21.30;64.20;;;;;;7401651;19;19922;-75
2023/06/06 08:18:12;;;;;;;4.22;1.77;;;21.40;64.20;;;;;;7401708;19;19929;-75
2023/06/06 08:20:41;;;;;;;3.90;1.50;;;21.40;64.20;;;;;;7401788;19;19952;-75
2023/06/06 08:23:10;;;;;;;4.40;1.30;;;21.40;64.20;;;;;;7398960;19;19990;-74
2023/06/06 08:25:43;;;;;;;3.03;1.30;;;21.40;64.20;;;;;;7402343;19;19923;-75
2023/06/06 08:28:12;;;;;;;3.08;1.13;;;21.40;64.10;;;;;;7400887;19;19926;-74
2023/06/06 08:30:41;;;;;;;3.65;1.38;;;21.40;64.10;;;;;;7400193;19;19922;-75
2023/06/06 08:33:10;;;;;;;4.38;1.83;;;21.50;64.10;;;;;;7401324;19;19994;-75
2023/06/06 08:35:39;;;;;;;3.35;1.27;;;21.50;64.10;;;;;;7401737;19;19929;-75
2023/06/06 08:38:08;;;;;;;3.17;1.60;;;21.50;64.20;;;;;;7400764;19;20310;-75
2023/06/06 08:40:37;;;;;;;3.35;1.35;;;21.50;64.10;;;;;;7402263;19;20270;-75
2023/06/06 08:43:10;;;;;;;3.38;1.38;;;21.50;64.10;;;;;;7398502;19;19921;-75
2023/06/06 08:45:42;;;;;;;3.85;1.70;;;21.60;64.10;;;;;;7401517;19;20459;-75
2023/06/06 08:48:12;;;;;;;2.90;1.20;;;21.50;64.10;;;;;;7400123;19;19910;-75
2023/06/06 08:50:42;;;;;;;2.22;1.08;;;21.60;64.10;;;;;;7400335;19;20286;-74
2023/06/06 08:53:11;;;;;;;3.88;1.33;;;21.60;64.00;;;;;;7400448;19;19932;-75
2023/06/06 08:55:40;;;;;;;;;;;21.60;64.00;;;;;;7403279;19;19925;-75
2023/06/06 08:58:13;;;;;;;3.13;1.20;;;21.60;64.00;;;;;;7400772;19;19944;-75
2023/06/06 09:00:43;;;;;;;3.92;1.10;;;21.60;64.00;;;;;;7401525;19;19931;-75
2023/06/06 09:03:14;;;;;;;4.75;1.70;;;21.60;64.00;;;;;;7403736;19;19934;-75
2023/06/06 09:05:44;;;;;;;4.00;1.77;;;21.60;63.90;;;;;;7406821;19;19925;-75
2023/06/06 09:08:13;;;;;;;3.90;1.38;;;21.60;63.90;;;;;;7407347;19;19918;-75
2023/06/06 09:10:42;;;;;;;2.40;1.17;;;21.70;64.00;;;;;;7409132;19;19923;-75
2023/06/06 09:13:14;;;;;;;2.80;1.10;;;21.60;64.00;;;;;;7405208;19;19994;-75
2023/06/06 09:15:43;;;;;;;3.55;1.30;;;21.70;64.00;;;;;;7407691;19;19943;-74
2023/06/06 09:18:12;;;;;;;3.50;1.30;;;21.70;64.00;;;;;;7405750;19;19945;-75
2023/06/06 09:20:42;;;;;;;2.25;1.05;;;21.70;64.00;;;;;;7406450;19;19927;-74
2023/06/06 09:23:16;;;;;;;3.05;1.13;;;21.70;63.90;;;;;;7404310;19;19926;-75
2023/06/06 09:25:47;;;;;;;3.33;1.33;;;21.70;63.90;;;;;;7405529;19;19939;-74
2023/06/06 09:28:20;;;;;;;3.33;1.33;;;21.70;64.00;;;;;;7406236;19;20298;-75
2023/06/06 09:30:50;;;;;;;3.40;1.13;;;21.70;63.90;;;;;;7406619;19;19922;-74
2023/06/06 09:33:19;;;;;;;3.42;1.27;;;21.80;63.90;;;;;;7403448;19;19923;-77
2023/06/06 09:35:48;;;;;;;2.42;1.20;;;21.80;64.10;;;;;;7404549;19;19922;-74
2023/06/06 09:38:19;;;;;;;3.20;1.30;;;21.80;64.10;;;;;;7403391;19;20276;-76
2023/06/06 09:40:53;;;;;;;3.00;1.40;;;21.90;64.10;;;;;;7398689;19;19949;-77
2023/06/06 09:43:30;;;;;;;2.90;1.27;;;21.90;64.30;;;;;;7395271;19;19918;-80
2023/06/06 09:46:04;;;;;;;3.80;1.13;;;22.00;64.40;;;;;;7403355;19;19927;-75
2023/06/06 09:48:33;;;;;;;2.45;0.90;;;22.00;64.30;;;;;;7400104;19;20609;-80
2023/06/06 09:51:02;;;;;;;3.83;1.15;;;22.00;64.20;;;;;;7392317;19;19936;-82
2023/06/06 09:53:32;;;;;;;2.97;1.15;;;22.10;64.10;;;;;;7391829;19;19918;-77
2023/06/06 09:56:07;;;;;;;2.42;1.20;;;22.10;64.10;;;;;;7395930;19;19929;-82
2023/06/06 09:58:40;;;;;;;2.55;1.08;;;22.10;64.00;;;;;;7399523;19;20447;-85
2023/06/06 10:01:10;;;;;;;3.25;1.02;;;22.10;64.00;;;;;;7403638;19;19942;-79
2023/06/06 10:03:40;;;;;;;3.53;1.35;;;22.10;64.00;;;;;;7403564;19;19926;-78
2023/06/06 10:06:11;;;;;;;2.88;1.05;;;22.20;64.00;;;;;;7401799;19;19982;-80
2023/06/06 10:08:42;;;;;;;3.10;1.17;;;22.20;64.30;;;;;;7406240;19;19986;-78
2023/06/06 10:11:11;;;;;;;3.25;0.95;;;22.30;64.10;;;;;;7404113;19;19926;-75
2023/06/06 10:13:43;;;;;;;3.08;1.52;;;22.30;64.10;;;;;;7404250;19;20395;-76
2023/06/06 10:16:12;;;;;;;3.45;1.00;;;22.30;64.20;;;;;;7401957;19;19922;-73
2023/06/06 10:18:47;;;;;;;2.33;1.25;;;22.30;64.10;;;;;;7407749;19;19966;-74
2023/06/06 10:21:18;;;;;;;2.90;1.02;;;22.40;64.10;;;;;;7407494;19;19922;-75
2023/06/06 10:23:47;;;;;;;2.95;1.05;;;22.40;64.10;;;;;;7406366;19;19919;-74
2023/06/06 10:26:26;;;;;;;3.08;1.10;;;22.40;64.10;;;;;;7406820;19;19911;-77
2023/06/06 10:29:04;;;;;;;2.72;0.95;;;22.40;64.00;;;;;;7405043;19;19929;-78
2023/06/06 10:31:39;;;;;;;2.63;1.23;;;22.40;64.10;;;;;;7402236;19;19926;-76
2023/06/06 10:34:13;;;;;;;2.78;1.13;;;22.50;64.10;;;;;;7402794;19;19934;-76
2023/06/06 10:36:43;;;;;;;2.97;1.27;;;22.50;64.10;;;;;;7403902;19;19978;-72
2023/06/06 10:39:20;;;;;;;2.42;1.25;;;22.50;64.10;;;;;;7400021;19;19927;-75
2023/06/06 10:41:55;;;;;;;3.03;1.02;;;22.60;64.10;;;;;;7404042;19;19922;-78
2023/06/06 10:44:29;;;;;;;2.38;1.00;;;22.60;64.10;;;;;;7403901;19;19928;-80
2023/06/06 10:47:30;;;;;;;3.28;1.40;;;22.60;64.00;;;;;;7405028;19;19978;-79
2023/06/06 10:50:24;;;;;;;2.58;1.02;;;22.70;64.30;;;;;;7402212;19;20553;-78
2023/06/06 10:52:57;;;;;;;2.67;1.20;;;22.70;64.10;;;;;;7404596;19;19922;-78
2023/06/06 10:55:50;;;;;;;3.40;1.17;;;22.70;64.10;;;;;;7403626;19;19923;-76
2023/06/06 10:58:28;;;;;;;2.47;1.23;;;22.70;64.10;;;;;;7402600;19;19918;-77
2023/06/06 11:01:06;;;;;;;3.25;1.40;;;22.70;64.00;;;;;;7401934;19;20277;-81
2023/06/06 11:03:39;;;;;;;3.53;1.20;;;22.80;64.10;;;;;;7401325;19;19933;-80
2023/06/06 11:06:14;;;;;;;2.70;1.00;;;22.80;64.10;;;;;;7403639;19;19933;-79
2023/06/06 11:08:46;;;;;;;2.80;1.02;;;22.80;64.10;;;;;;7404552;19;19933;-78
2023/06/06 11:11:25;;;;;;;2.97;1.13;;;22.90;64.10;;;;;;7403681;19;19938;-78
2023/06/06 11:13:56;;;;;;;2.63;0.95;;;22.90;64.10;;;;;;7402023;19;19945;-76
2023/06/06 11:17:01;;;;;;;2.85;0.90;;;22.90;64.10;;;;;;7402966;19;19925;-74
2023/06/06 11:19:40;;;;;;;2.80;0.98;;;23.00;64.10;;;;;;7399695;19;19929;-76
2023/06/06 11:22:23;;;;;;;2.50;0.88;;;22.90;64.00;;;;;;7401616;19;19933;-76
2023/06/06 11:24:52;;;;;;;2.10;0.70;;;23.00;64.00;;;;;;7401944;19;20360;-76
2023/06/06 11:27:21;;;;;;;3.78;1.30;;;23.00;64.00;;;;;;7403419;19;19982;-77
2023/06/06 11:29:51;;;;;;;2.20;0.90;;;23.00;63.90;;;;;;7400905;19;20352;-78
2023/06/06 11:32:25;;;;;;;2.70;0.90;;;23.10;64.00;;;;;;7401797;19;19961;-76
2023/06/06 11:34:55;;;;;;;2.28;0.77;;;23.10;63.90;;;;;;7402325;19;19981;-74
2023/06/06 11:37:25;;;;;;;2.40;0.85;;;23.10;63.90;;;;;;7401807;19;19927;-76
2023/06/06 11:39:55;;;;;;;2.10;0.88;;;23.10;63.90;;;;;;7396138;19;19922;-75
2023/06/06 11:42:24;;;;;;;2.90;1.00;;;23.20;63.90;;;;;;7400522;19;19914;-76
2023/06/06 11:44:53;;;;;;;2.47;1.08;;;23.20;63.90;;;;;;7400633;19;19978;-77
2023/06/06 11:47:33;;;;;;;2.08;0.95;;;23.20;63.90;;;;;;7403341;19;19922;-75
2023/06/06 11:50:02;;;;;;;2.40;1.17;;;23.30;63.90;;;;;;7400152;19;19918;-75
2023/06/06 11:52:31;;;;;;;2.78;0.80;;;23.40;63.90;;;;;;7403606;19;19922;-77
2023/06/06 11:55:04;;;;;;;1.85;0.70;;;23.30;63.80;;;;;;7397974;19;20402;-79
2023/06/06 11:57:34;;;;;;;3.30;1.15;;;23.40;63.90;;;;;;7402170;19;19986;-79
2023/06/06 12:00:12;;;;;;;2.42;1.02;;;23.40;63.80;;;;;;7397370;19;19935;-77
2023/06/06 12:02:48;;;;;;;2.88;1.10;;;23.40;63.70;;;;;;7402047;19;19923;-79
2023/06/06 12:05:25;;;;;;;2.40;1.08;;;23.50;63.80;;;;;;7396788;19;19922;-77
2023/06/06 12:07:58;;;;;;;2.20;0.80;;;23.50;63.70;;;;;;7388438;19;20646;-75
2023/06/06 12:10:30;;;;;;;1.88;0.70;;;23.50;63.70;;;;;;7397286;19;19922;-76
2023/06/06 12:12:59;;;;;;;2.38;0.77;;;23.50;63.60;;;;;;7399733;19;19919;-78
2023/06/06 12:15:46;;;;;;;2.58;0.90;;;23.60;63.60;;;;;;7398281;19;20382;-78
2023/06/06 12:18:18;;;;;;;2.65;1.05;;;23.60;63.80;;;;;;7401072;19;19947;-76
2023/06/06 12:20:48;;;;;;;2.40;1.05;;;23.60;63.50;;;;;;7399934;19;19926;-75
2023/06/06 12:23:28;;;;;;;2.17;0.75;;;23.70;63.60;;;;;;7397396;19;20845;-75
2023/06/06 12:25:59;;;;;;;1.90;0.77;;;23.70;63.50;;;;;;7400260;19;19943;-75
2023/06/06 12:28:28;;;;;;;2.00;0.90;;;23.70;63.50;;;;;;7398662;19;19925;-78
2023/06/06 12:30:57;;;;;;;3.65;1.27;;;23.70;63.40;;;;;;7398069;19;19925;-76
2023/06/06 12:33:46;;;;;;;2.50;1.00;;;23.70;63.40;;;;;;7399215;19;19919;-75
2023/06/06 12:36:19;;;;;;;1.70;0.70;;;23.80;63.40;;;;;;7398796;19;19915;-76
2023/06/06 12:39:03;;;;;;;2.20;0.95;;;23.90;63.40;;;;;;7396768;19;19966;-76
2023/06/06 12:41:39;;;;;;;2.38;0.85;;;23.90;63.40;;;;;;7403392;19;19922;-78
2023/06/06 12:44:11;;;;;;;3.85;1.13;;;23.90;63.30;;;;;;7387813;19;19930;-76
2023/06/06 12:46:41;;;;;;;2.67;1.00;;;23.90;63.30;;;;;;7382652;19;19942;-76
2023/06/06 12:49:13;;;;;;;2.55;1.13;;;23.90;63.30;;;;;;7394391;19;19926;-78
2023/06/06 12:51:43;;;;;;;2.50;0.93;;;24.00;63.30;;;;;;7389562;19;19930;-77
2023/06/06 12:54:13;;;;;;;2.22;1.13;;;24.00;63.30;;;;;;7395414;19;19946;-77
2023/06/06 12:56:42;;;;;;;4.15;1.17;;;24.00;63.20;;;;;;7398182;19;19947;-81
2023/06/06 12:59:11;;;;;;;2.55;0.95;;;24.00;63.20;;;;;;7402001;19;19918;-80
2023/06/06 13:01:41;;;;;;;2.63;0.90;;;24.10;63.20;;;;;;7398922;19;19994;-80
2023/06/06 13:04:12;;;;;;;2.50;1.05;;;24.10;63.20;;;;;;7399872;19;19922;-80
2023/06/06 13:06:42;;;;;;;2.72;1.25;;;24.10;63.20;;;;;;7399344;19;19939;-78
2023/06/06 13:09:11;;;;;;;3.03;0.82;;;24.10;63.10;;;;;;7394130;19;19931;-76